Time;durP1;ratioP1;P1;durP2;ratioP2;P2;SDS_P1;SDS_P2;PMS_P1;PMS_P2;Temp;Humidity;BMP_temperature;BMP_pressure;BME280_temperature;BME280_humidity;BME280_pressure;Samples;Min_cycle;Max_cycle;Signal;HPM_P1;HPM_P2
2022/04/09 00:01:10;;;;;;;3.87;2.50;;;;;;;11.40;68.37;94227.11;1718723;83;21015;-73
2022/04/09 00:03:37;;;;;;;3.10;2.37;;;;;;;11.44;67.83;94225.59;1718556;83;21083;-73
2022/04/09 00:06:04;;;;;;;4.60;2.55;;;;;;;11.39;67.90;94224.94;1718627;83;21023;-74
2022/04/09 00:08:31;;;;;;;4.60;2.40;;;;;;;11.37;66.96;94229.42;1718530;83;21047;-73
2022/04/09 00:10:57;;;;;;;3.92;2.30;;;;;;;11.42;67.23;94218.20;1718693;83;21504;-74
2022/04/09 00:13:24;;;;;;;2.75;2.42;;;;;;;11.44;66.80;94227.36;1718680;83;21038;-74
2022/04/09 00:15:50;;;;;;;3.37;2.15;;;;;;;11.45;66.87;94225.13;1718824;83;21000;-74
2022/04/09 00:18:17;;;;;;;6.85;2.83;;;;;;;11.31;68.63;94222.22;1718705;83;21007;-74
2022/04/09 00:20:43;;;;;;;5.42;2.65;;;;;;;11.23;68.62;94218.59;1718635;83;21035;-74
2022/04/09 00:23:13;;;;;;;7.60;2.40;;;;;;;11.07;70.38;94209.16;1718611;83;21043;-74
2022/04/09 00:25:41;;;;;;;4.62;2.33;;;;;;;10.99;69.83;94204.21;1718574;83;21071;-73
2022/04/09 00:28:07;;;;;;;4.17;2.30;;;;;;;11.04;69.07;94200.06;1718843;83;21059;-73
2022/04/09 00:30:34;;;;;;;5.10;2.70;;;;;;;11.01;70.98;94192.25;1718830;83;21513;-73
2022/04/09 00:33:00;;;;;;;3.27;2.20;;;;;;;10.94;70.17;94188.19;1718565;83;21018;-72
2022/04/09 00:35:27;;;;;;;4.15;2.10;;;;;;;10.82;71.36;94185.13;1718722;83;21018;-73
2022/04/09 00:37:54;;;;;;;3.67;2.27;;;;;;;10.71;71.11;94179.45;1718909;83;21028;-73
2022/04/09 00:40:25;;;;;;;3.22;2.15;;;;;;;10.64;71.72;94176.67;1718525;83;21031;-73
2022/04/09 00:42:52;;;;;;;3.53;1.93;;;;;;;10.49;73.11;94178.16;1718836;83;21075;-73
2022/04/09 00:45:19;;;;;;;4.53;2.47;;;;;;;10.37;73.57;94172.91;1718678;83;21042;-73
2022/04/09 00:47:46;;;;;;;4.70;2.30;;;;;;;10.27;74.42;94175.95;1718725;83;21035;-73
2022/04/09 00:50:13;;;;;;;4.17;2.10;;;;;;;10.30;73.25;94178.03;1718618;83;21540;-73
2022/04/09 00:52:50;;;;;;;4.90;2.20;;;;;;;10.35;72.45;94176.06;1718830;83;21115;-73
2022/04/09 00:56:13;;;;;;;2.87;1.90;;;;;;;10.38;73.18;94170.69;1717051;83;21048;-74
2022/04/09 00:57:51;;;;;;;4.03;2.20;;;;;;;10.37;72.92;94165.47;1714876;83;21505;-74
2022/04/09 01:00:19;;;;;;;4.63;2.60;;;;;;;10.39;72.71;94155.72;1718816;83;21505;-73
2022/04/09 01:02:46;;;;;;;3.00;2.17;;;;;;;10.37;72.14;94149.65;1718631;83;21015;-73
2022/04/09 01:05:13;;;;;;;4.93;2.23;;;;;;;10.29;72.87;94154.38;1718626;83;21568;-73
2022/04/09 01:07:40;;;;;;;3.27;2.17;;;;;;;10.26;73.35;94140.83;1717133;83;21043;-73
2022/04/09 01:10:08;;;;;;;5.20;2.10;;;;;;;10.22;72.95;94141.02;1684738;84;21055;-73
2022/04/09 01:12:37;;;;;;;3.77;2.30;;;;;;;10.33;71.70;94144.97;1713098;83;21031;-73
2022/04/09 01:15:09;;;;;;;2.80;2.10;;;;;;;10.42;71.05;94136.28;1713053;84;20964;-73
2022/04/09 01:17:36;;;;;;;3.42;2.10;;;;;;;10.37;71.46;94134.68;1713331;84;21015;-72
2022/04/09 01:20:22;;;;;;;3.03;1.90;;;;;;;10.25;71.76;94130.34;1684800;84;21031;-72
2022/04/09 01:22:51;;;;;;;2.50;1.70;;;;;;;10.28;70.43;94127.17;1713115;84;21044;-73
2022/04/09 01:25:19;;;;;;;4.87;1.90;;;;;;;10.45;70.75;94119.86;1713017;84;21110;-73
2022/04/09 01:27:48;;;;;;;5.70;2.10;;;;;;;10.50;69.36;94125.80;1713196;83;21040;-73
2022/04/09 01:30:17;;;;;;;1.67;1.47;;;;;;;10.53;70.15;94119.53;1713076;83;21033;-73
2022/04/09 01:32:44;;;;;;;1.67;1.57;;;;;;;10.48;69.88;94117.55;1713121;83;21027;-73
2022/04/09 01:35:11;;;;;;;7.20;2.10;;;;;;;10.55;68.82;94121.66;1712952;84;21035;-73
2022/04/09 01:37:38;;;;;;;2.60;2.00;;;;;;;10.61;68.99;94127.54;1713041;83;21596;-73
2022/04/09 01:40:07;;;;;;;2.43;1.87;;;;;;;10.55;69.37;94135.69;1713069;83;21075;-73
2022/04/09 01:42:33;;;;;;;3.50;1.87;;;;;;;10.65;67.38;94128.72;1713112;84;21082;-73
2022/04/09 01:45:00;;;;;;;3.13;1.90;;;;;;;10.87;66.03;94119.44;1713156;84;21521;-73
2022/04/09 01:47:27;;;;;;;5.33;2.30;;;;;;;11.00;66.72;94134.66;1713082;83;21076;-73
2022/04/09 01:49:54;;;;;;;3.80;2.30;;;;;;;11.06;65.70;94134.84;1713091;83;21521;-73
2022/04/09 01:52:20;;;;;;;2.77;2.00;;;;;;;11.09;66.20;94140.45;1713221;84;21008;-73
2022/04/09 01:54:47;;;;;;;2.98;2.10;;;;;;;11.10;66.55;94138.22;1713229;84;21123;-73
2022/04/09 01:57:15;;;;;;;3.72;2.17;;;;;;;10.97;67.62;94137.44;1713015;83;20980;-72
2022/04/09 01:59:44;;;;;;;5.00;2.45;;;;;;;10.88;68.40;94133.86;1713421;84;21071;-73
2022/04/09 02:02:11;;;;;;;2.22;1.77;;;;;;;10.88;68.56;94142.25;1713077;83;20976;-73
2022/04/09 02:04:37;;;;;;;5.03;2.53;;;;;;;10.84;68.90;94142.86;1712986;84;21597;-73
2022/04/09 02:07:04;;;;;;;3.47;2.30;;;;;;;10.93;69.06;94133.20;1713217;83;21637;-73
2022/04/09 02:09:32;;;;;;;4.33;2.50;;;;;;;10.96;69.26;94138.81;1718223;83;21075;-73
2022/04/09 02:11:59;;;;;;;3.73;2.43;;;;;;;10.90;70.68;94133.34;1718609;83;21027;-73
2022/04/09 02:14:26;;;;;;;5.70;2.35;;;;;;;10.96;70.47;94142.33;1718733;83;21087;-73
2022/04/09 02:16:53;;;;;;;4.07;2.57;;;;;;;10.96;70.84;94137.48;1718769;83;21487;-74
2022/04/09 02:19:19;;;;;;;4.50;2.50;;;;;;;10.94;71.02;94132.77;1718532;83;21027;-74
2022/04/09 02:21:45;;;;;;;2.30;2.10;;;;;;;10.87;71.31;94123.39;1718514;83;20992;-73
2022/04/09 02:24:12;;;;;;;4.73;2.47;;;;;;;10.79;71.27;94126.37;1718635;83;21058;-74
2022/04/09 02:26:38;;;;;;;4.33;2.43;;;;;;;10.72;71.75;94131.03;1692069;83;21571;-74
2022/04/09 02:29:06;;;;;;;4.80;2.00;;;;;;;10.59;73.42;94130.70;1718651;83;21485;-73
2022/04/09 02:31:32;;;;;;;2.63;2.00;;;;;;;10.55;73.61;94138.80;1718507;83;21087;-73
2022/04/09 02:33:59;;;;;;;4.60;2.30;;;;;;;10.48;73.28;94140.85;1718554;83;21094;-72
2022/04/09 02:36:27;;;;;;;2.93;2.20;;;;;;;10.51;73.09;94129.31;1718629;83;21035;-73
2022/04/09 02:38:53;;;;;;;5.03;2.23;;;;;;;10.44;73.24;94130.48;1718648;83;21497;-73
2022/04/09 02:41:20;;;;;;;4.30;2.47;;;;;;;10.43;73.70;94133.56;1718703;83;20983;-73
2022/04/09 02:43:47;;;;;;;4.37;2.93;;;;;;;10.38;75.83;94129.82;1718635;83;21079;-73
2022/04/09 02:46:13;;;;;;;5.10;2.40;;;;;;;10.32;75.02;94122.15;1718644;83;21035;-73
2022/04/09 02:48:42;;;;;;;3.53;2.43;;;;;;;10.24;75.56;94118.09;1718516;83;21146;-73
2022/04/09 02:51:08;;;;;;;5.47;2.63;;;;;;;10.18;74.93;94108.20;1691885;83;21055;-73
2022/04/09 02:53:35;;;;;;;5.43;2.70;;;;;;;10.12;75.28;94126.03;1718643;83;21556;-73
2022/04/09 02:56:04;;;;;;;3.70;2.47;;;;;;;10.09;75.00;94118.25;1718747;83;21027;-74
2022/04/09 02:58:31;;;;;;;3.23;2.43;;;;;;;9.95;74.82;94119.67;1718619;83;21031;-74
2022/04/09 03:00:57;;;;;;;2.73;2.10;;;;;;;9.84;76.01;94119.69;1692065;83;21051;-74
2022/04/09 03:03:26;;;;;;;2.43;2.23;;;;;;;9.79;77.21;94124.28;1718727;83;21036;-74
2022/04/09 03:05:52;;;;;;;2.53;2.23;;;;;;;9.78;77.86;94110.25;1718567;83;21035;-73
2022/04/09 03:08:19;;;;;;;2.90;2.33;;;;;;;9.78;77.18;94101.47;1718571;83;21110;-73
2022/04/09 03:10:46;;;;;;;3.57;1.83;;;;;;;9.70;78.40;94105.29;1718646;83;21480;-72
2022/04/09 03:13:14;;;;;;;3.67;2.20;;;;;;;9.70;77.98;94105.29;1718806;83;21015;-73
2022/04/09 03:15:41;;;;;;;4.07;2.30;;;;;;;9.76;77.54;94113.41;1718670;83;21506;-73
2022/04/09 03:18:10;;;;;;;1.97;1.43;;;;;;;9.77;77.59;94123.47;1718620;83;20992;-73
2022/04/09 03:20:38;;;;;;;2.73;1.83;;;;;;;9.74;78.88;94122.67;1718621;83;21446;-73
2022/04/09 03:23:05;;;;;;;4.17;1.80;;;;;;;9.76;78.52;94118.67;1718560;83;21561;-73
2022/04/09 03:25:36;;;;;;;3.83;1.80;;;;;;;9.79;78.66;94121.17;1703157;83;21034;-74
2022/04/09 03:28:03;;;;;;;2.10;1.87;;;;;;;9.78;78.50;94123.42;1718714;83;21019;-73
2022/04/09 03:30:31;;;;;;;2.33;1.40;;;;;;;9.86;78.67;94125.76;1718563;83;21008;-73
2022/04/09 03:32:58;;;;;;;3.33;1.30;;;;;;;9.93;78.22;94120.65;1718607;83;21062;-73
2022/04/09 03:35:26;;;;;;;4.43;2.40;;;;;;;9.90;78.64;94120.31;1718524;83;20967;-74
2022/04/09 03:37:54;;;;;;;2.17;1.37;;;;;;;9.87;78.79;94117.77;1718605;83;21034;-74
2022/04/09 03:40:22;;;;;;;3.73;1.50;;;;;;;9.92;78.94;94111.86;1718506;83;21007;-74
2022/04/09 03:42:49;;;;;;;2.90;1.30;;;;;;;9.88;78.91;94111.61;1718632;83;21056;-73
2022/04/09 03:45:16;;;;;;;2.63;1.33;;;;;;;9.96;78.78;94113.94;1718607;83;21030;-73
2022/04/09 03:47:43;;;;;;;2.67;1.90;;;;;;;10.02;78.49;94119.41;1718806;83;20999;-73
2022/04/09 03:50:11;;;;;;;2.13;1.50;;;;;;;10.07;78.74;94110.86;1718402;83;21051;-72
2022/04/09 03:52:38;;;;;;;2.07;1.50;;;;;;;10.10;78.82;94113.36;1718746;83;21019;-73
2022/04/09 03:55:07;;;;;;;2.10;1.90;;;;;;;10.00;78.36;94112.02;1718868;83;21007;-73
2022/04/09 03:57:34;;;;;;;4.20;1.70;;;;;;;9.97;78.91;94120.44;1718673;83;21043;-73
2022/04/09 04:00:00;;;;;;;3.80;1.87;;;;;;;9.91;78.80;94114.11;1718776;83;21544;-73
2022/04/09 04:02:27;;;;;;;2.97;1.37;;;;;;;9.94;79.14;94123.67;1718744;83;21107;-73
2022/04/09 04:04:54;;;;;;;3.80;2.20;;;;;;;9.89;79.62;94121.21;1718601;83;21482;-73
2022/04/09 04:07:22;;;;;;;4.27;3.37;;;;;;;9.75;79.26;94124.84;1718716;83;21034;-74
2022/04/09 04:09:50;;;;;;;4.00;2.40;;;;;;;9.67;79.32;94130.87;1686420;84;21046;-73
2022/04/09 04:12:17;;;;;;;4.90;4.00;;;;;;;9.67;80.09;94119.02;1713085;83;21028;-74
2022/04/09 04:14:44;;;;;;;4.43;3.23;;;;;;;9.62;79.55;94113.07;1713266;84;21012;-74
2022/04/09 04:17:12;;;;;;;3.10;2.40;;;;;;;9.56;80.22;94119.91;1713188;84;21035;-74
2022/04/09 04:19:40;;;;;;;3.40;2.30;;;;;;;9.49;79.99;94113.53;1712868;83;21042;-74
2022/04/09 04:22:08;;;;;;;2.43;2.17;;;;;;;9.46;79.79;94104.91;1712990;84;21047;-74
2022/04/09 04:24:38;;;;;;;2.93;2.20;;;;;;;9.44;80.30;94109.37;1713157;84;21498;-74
2022/04/09 04:27:06;;;;;;;3.07;2.60;;;;;;;9.37;79.81;94108.73;1685039;84;21044;-74
2022/04/09 04:29:34;;;;;;;2.67;2.43;;;;;;;9.36;79.85;94115.39;1713246;83;21012;-73
2022/04/09 04:32:01;;;;;;;2.27;1.80;;;;;;;9.28;79.85;94123.11;1713023;84;21036;-72
2022/04/09 04:34:29;;;;;;;2.33;2.13;;;;;;;9.23;80.32;94117.63;1713021;83;21549;-72
2022/04/09 04:36:56;;;;;;;4.47;2.60;;;;;;;9.19;80.72;94107.65;1713072;84;21517;-73
2022/04/09 04:39:23;;;;;;;2.17;1.90;;;;;;;9.26;80.19;94108.30;1713119;83;20980;-73
2022/04/09 04:41:51;;;;;;;2.30;1.70;;;;;;;9.30;79.91;94118.66;1713080;83;20980;-73
2022/04/09 04:44:18;;;;;;;2.53;1.80;;;;;;;9.26;80.62;94111.77;1713219;83;21086;-73
2022/04/09 04:46:46;;;;;;;3.10;1.47;;;;;;;9.41;80.00;94114.30;1713044;84;21060;-73
2022/04/09 04:49:15;;;;;;;1.77;1.30;;;;;;;9.51;79.79;94119.61;1712893;84;21068;-73
2022/04/09 04:51:42;;;;;;;1.80;1.67;;;;;;;9.54;79.41;94109.41;1713001;84;21018;-74
2022/04/09 04:54:10;;;;;;;6.13;1.80;;;;;;;9.60;79.90;94107.88;1712981;84;21043;-74
2022/04/09 04:56:37;;;;;;;5.17;2.97;;;;;;;9.69;79.80;94115.41;1713122;83;21525;-74
2022/04/09 04:59:07;;;;;;;5.53;2.43;;;;;;;9.77;79.75;94119.05;1713110;83;21000;-74
2022/04/09 05:01:34;;;;;;;3.77;1.90;;;;;;;9.89;79.66;94113.77;1712967;83;21031;-73
2022/04/09 05:04:03;;;;;;;2.63;2.13;;;;;;;10.00;79.27;94123.41;1713194;84;20984;-74
2022/04/09 05:06:32;;;;;;;3.57;2.87;;;;;;;10.14;78.22;94126.36;1711892;84;21015;-73
2022/04/09 05:08:59;;;;;;;6.43;4.20;;;;;;;10.24;78.44;94122.05;1714877;83;21007;-73
2022/04/09 05:11:36;;;;;;;2.67;2.20;;;;;;;10.30;78.27;94135.84;1718482;83;21103;-73
2022/04/09 05:14:05;;;;;;;4.60;2.60;;;;;;;10.32;78.37;94134.48;1718694;83;21536;-73
2022/04/09 05:16:32;;;;;;;3.83;3.33;;;;;;;10.39;78.70;94153.08;1718790;83;21087;-73
2022/04/09 05:19:00;;;;;;;6.73;4.33;;;;;;;10.38;79.05;94148.28;1718402;83;21040;-73
2022/04/09 05:21:28;;;;;;;6.77;5.53;;;;;;;10.44;78.69;94156.86;1718652;83;21132;-73
2022/04/09 05:23:54;;;;;;;6.40;5.67;;;;;;;10.45;78.97;94155.92;1718686;83;21031;-73
2022/04/09 05:26:21;;;;;;;5.93;4.30;;;;;;;10.51;79.21;94148.63;1718843;83;21051;-74
2022/04/09 05:28:54;;;;;;;6.87;4.40;;;;;;;10.57;79.30;94152.78;1718632;83;21027;-74
2022/04/09 05:31:27;;;;;;;7.80;5.77;;;;;;;10.59;79.27;94147.84;1718706;83;21143;-74
2022/04/09 05:33:55;;;;;;;5.72;5.10;;;;;;;10.59;79.14;94145.20;1718705;83;21489;-74
2022/04/09 05:36:23;;;;;;;9.13;7.33;;;;;;;10.65;79.91;94147.19;1718498;83;21059;-74
2022/04/09 05:38:51;;;;;;;7.95;6.50;;;;;;;10.69;79.32;94150.95;1718752;83;21008;-74
2022/04/09 05:41:18;;;;;;;7.95;5.20;;;;;;;10.73;79.00;94157.80;1718833;83;21557;-74
2022/04/09 05:43:44;;;;;;;8.75;6.05;;;;;;;10.74;79.08;94162.64;1718613;83;21032;-74
2022/04/09 05:46:11;;;;;;;8.38;5.12;;;;;;;10.72;79.32;94149.97;1718642;83;21008;-74
2022/04/09 05:48:38;;;;;;;6.55;5.83;;;;;;;10.66;80.08;94147.56;1718687;83;21019;-73
2022/04/09 05:51:05;;;;;;;6.35;5.53;;;;;;;10.67;80.04;94141.39;1718555;83;21567;-74
2022/04/09 05:53:33;;;;;;;7.78;5.20;;;;;;;10.72;79.73;94136.78;1718562;83;21501;-73
2022/04/09 05:56:01;;;;;;;7.85;5.60;;;;;;;10.75;79.68;94138.81;1718716;83;21019;-73
2022/04/09 05:58:30;;;;;;;9.33;6.05;;;;;;;10.76;79.55;94144.94;1718177;83;21050;-73
2022/04/09 06:01:00;;;;;;;8.98;6.80;;;;;;;10.76;79.77;94136.59;1718764;83;21047;-73
2022/04/09 06:03:28;;;;;;;9.78;5.92;;;;;;;10.75;79.89;94141.91;1718498;83;21454;-73
2022/04/09 06:05:55;;;;;;;6.12;4.58;;;;;;;10.74;80.13;94142.38;1718297;83;21051;-73
2022/04/09 06:08:23;;;;;;;7.90;6.17;;;;;;;10.77;80.21;94147.99;1717430;83;21039;-73
2022/04/09 06:10:50;;;;;;;5.05;3.80;;;;;;;10.77;80.02;94152.80;1713099;83;21123;-73
2022/04/09 06:13:17;;;;;;;8.18;5.33;;;;;;;10.80;80.54;94150.49;1713017;84;21031;-74
2022/04/09 06:15:45;;;;;;;6.10;4.75;;;;;;;10.82;81.44;94142.91;1713037;83;21028;-73
2022/04/09 06:18:14;;;;;;;9.85;6.22;;;;;;;10.92;81.26;94139.88;1712555;84;21016;-74
2022/04/09 06:20:41;;;;;;;7.70;6.37;;;;;;;10.88;80.88;94136.97;1712887;83;21016;-74
2022/04/09 06:23:10;;;;;;;7.87;5.42;;;;;;;10.94;81.48;94142.00;1712848;84;21035;-74
2022/04/09 06:25:36;;;;;;;8.40;5.80;;;;;;;11.01;81.59;94142.11;1712957;83;21518;-73
2022/04/09 06:28:04;;;;;;;7.12;5.55;;;;;;;11.03;82.02;94144.22;1713127;84;21118;-73
2022/04/09 06:30:32;;;;;;;5.40;4.90;;;;;;;11.10;81.76;94146.99;1713054;83;21008;-73
2022/04/09 06:33:01;;;;;;;6.70;4.50;;;;;;;11.23;81.56;94133.64;1712488;84;21047;-74
2022/04/09 06:35:29;;;;;;;8.15;7.17;;;;;;;11.35;81.54;94135.35;1713047;83;21470;-73
2022/04/09 06:37:56;;;;;;;3.65;3.27;;;;;;;11.45;80.96;94128.73;1684908;84;21012;-73
2022/04/09 06:40:23;;;;;;;3.15;2.85;;;;;;;11.51;80.53;94131.08;1713154;84;21518;-73
2022/04/09 06:42:49;;;;;;;4.35;2.58;;;;;;;11.52;79.73;94131.48;1713008;84;21087;-73
2022/04/09 06:45:20;;;;;;;4.40;2.87;;;;;;;11.54;79.92;94134.05;1708602;84;21035;-73
2022/04/09 06:47:57;;;;;;;4.37;3.27;;;;;;;11.61;80.39;94136.33;1691996;84;21533;-73
2022/04/09 06:50:24;;;;;;;4.58;3.65;;;;;;;11.60;80.65;94141.70;1712925;83;21003;-73
2022/04/09 06:52:51;;;;;;;6.12;4.00;;;;;;;11.67;80.52;94136.54;1712830;84;21035;-74
2022/04/09 06:55:19;;;;;;;4.35;3.95;;;;;;;11.70;80.14;94126.67;1711277;84;21043;-74
2022/04/09 06:57:47;;;;;;;5.03;4.00;;;;;;;11.69;80.00;94135.98;1713105;84;21534;-74
2022/04/09 07:00:16;;;;;;;6.45;4.20;;;;;;;11.60;79.50;94138.59;1712907;84;21020;-74
2022/04/09 07:02:42;;;;;;;5.37;4.62;;;;;;;11.51;79.37;94142.96;1713084;84;21466;-74
2022/04/09 07:05:09;;;;;;;6.20;4.40;;;;;;;11.53;79.84;94133.66;1712753;84;21058;-74
2022/04/09 07:07:36;;;;;;;5.70;4.53;;;;;;;11.57;79.66;94137.42;1712782;84;21023;-73
2022/04/09 07:10:09;;;;;;;7.08;5.30;;;;;;;11.61;79.92;94134.16;1713144;84;21015;-74
2022/04/09 07:12:37;;;;;;;12.15;6.60;;;;;;;11.56;79.32;94136.16;1716494;83;21082;-73
2022/04/09 07:15:04;;;;;;;9.38;6.40;;;;;;;11.50;79.90;94134.66;1718565;83;21100;-73
2022/04/09 07:17:31;;;;;;;6.47;5.30;;;;;;;11.48;80.02;94140.00;1718632;83;21083;-73
2022/04/09 07:20:07;;;;;;;7.03;5.20;;;;;;;11.50;79.96;94147.86;1718553;83;21011;-73
2022/04/09 07:22:37;;;;;;;5.90;5.30;;;;;;;11.41;80.20;94144.30;1718683;83;21035;-73
2022/04/09 07:25:07;;;;;;;6.28;5.65;;;;;;;11.38;80.15;94155.87;1718790;83;21070;-73
2022/04/09 07:27:40;;;;;;;6.05;5.45;;;;;;;11.34;80.21;94158.27;1718698;83;21434;-73
2022/04/09 07:30:17;;;;;;;6.10;5.17;;;;;;;11.36;79.97;94156.86;1718773;83;21031;-74
2022/04/09 07:32:44;;;;;;;6.85;5.58;;;;;;;11.28;80.35;94153.24;1718815;83;21062;-74
2022/04/09 07:35:12;;;;;;;6.00;5.40;;;;;;;11.24;80.77;94154.32;1718701;83;21489;-75
2022/04/09 07:37:45;;;;;;;15.83;10.35;;;;;;;11.30;80.80;94166.39;1718544;83;21107;-69
2022/04/09 07:40:14;;;;;;;12.85;9.68;;;;;;;11.32;80.75;94163.22;1718321;83;21027;-68
2022/04/09 07:42:44;;;;;;;22.95;13.15;;;;;;;11.29;80.32;94173.89;1718681;83;21035;-69
2022/04/09 07:45:12;;;;;;;14.07;8.25;;;;;;;11.24;80.17;94173.66;1718678;83;21042;-71
2022/04/09 07:47:40;;;;;;;6.90;4.03;;;;;;;11.17;80.22;94192.00;1718966;83;21043;-70
2022/04/09 07:50:10;;;;;;;5.45;4.67;;;;;;;11.10;80.14;94189.70;1718724;83;21090;-70
2022/04/09 07:52:44;;;;;;;6.40;5.58;;;;;;;11.04;80.40;94182.44;1718801;83;21501;-69
2022/04/09 07:55:16;;;;;;;7.20;4.80;;;;;;;11.08;80.57;94191.07;1718789;83;21435;-70
2022/04/09 07:57:51;;;;;;;6.75;5.80;;;;;;;11.13;80.47;94194.84;1718812;83;20977;-69
2022/04/09 08:00:20;;;;;;;8.60;6.35;;;;;;;11.11;80.36;94200.64;1718773;83;21019;-69
2022/04/09 08:02:47;;;;;;;7.33;5.00;;;;;;;11.06;80.26;94203.47;1718702;83;21043;-69
2022/04/09 08:05:15;;;;;;;8.40;5.80;;;;;;;11.03;80.26;94204.45;1692060;83;21162;-69
2022/04/09 08:07:42;;;;;;;8.10;5.87;;;;;;;10.99;80.32;94202.89;1718693;83;20972;-70
2022/04/09 08:10:11;;;;;;;7.15;5.00;;;;;;;11.01;80.26;94206.77;1718692;83;21027;-69
2022/04/09 08:12:38;;;;;;;5.58;4.80;;;;;;;10.98;80.03;94209.08;1715978;83;21517;-70
2022/04/09 08:15:07;;;;;;;7.12;4.85;;;;;;;10.96;80.14;94213.59;1713325;83;21513;-70
2022/04/09 08:17:39;;;;;;;9.05;6.17;;;;;;;10.98;80.07;94210.39;1713046;84;21027;-70
2022/04/09 08:20:08;;;;;;;8.78;7.30;;;;;;;10.99;79.90;94219.20;1713249;84;21067;-70
2022/04/09 08:22:35;;;;;;;9.23;6.35;;;;;;;11.00;79.77;94220.90;1713064;84;21051;-69
2022/04/09 08:25:02;;;;;;;8.10;7.28;;;;;;;10.94;79.47;94213.25;1712996;83;21048;-70
2022/04/09 08:27:29;;;;;;;8.20;7.17;;;;;;;10.97;80.22;94217.92;1713213;84;21067;-70
2022/04/09 08:29:56;;;;;;;11.15;7.30;;;;;;;11.04;80.14;94215.90;1713190;84;21076;-70
2022/04/09 08:32:25;;;;;;;14.43;12.23;;;;;;;11.04;79.90;94218.07;1713002;84;21497;-72
2022/04/09 08:34:53;;;;;;;8.05;5.20;;;;;;;11.03;80.18;94226.05;1713057;83;21020;-69
2022/04/09 08:37:22;;;;;;;7.47;5.85;;;;;;;11.06;80.17;94221.95;1712991;83;21513;-69
2022/04/09 08:39:49;;;;;;;10.05;6.87;;;;;;;11.05;79.44;94225.52;1713273;83;21008;-72
2022/04/09 08:42:16;;;;;;;6.00;4.80;;;;;;;11.09;79.85;94226.23;1713154;83;21510;-72
2022/04/09 08:44:43;;;;;;;7.20;5.37;;;;;;;11.06;79.35;94225.91;1712948;83;21032;-72
2022/04/09 08:47:13;;;;;;;7.92;5.60;;;;;;;11.07;79.28;94226.79;1713046;84;21059;-72
2022/04/09 08:49:45;;;;;;;8.85;6.00;;;;;;;11.11;79.20;94230.52;1713209;83;21044;-73
2022/04/09 08:52:13;;;;;;;9.75;6.72;;;;;;;11.04;79.29;94223.81;1712400;83;21051;-72
2022/04/09 08:54:43;;;;;;;8.20;7.03;;;;;;;11.03;79.37;94220.30;1713101;84;21043;-72
2022/04/09 08:57:11;;;;;;;10.30;6.62;;;;;;;11.03;79.07;94220.30;1713211;83;21537;-73
2022/04/09 08:59:38;;;;;;;14.05;8.48;;;;;;;11.02;79.68;94217.74;1685150;84;21075;-72
2022/04/09 09:02:06;;;;;;;16.17;10.72;;;;;;;10.98;79.30;94214.36;1713190;84;21084;-72
2022/04/09 09:04:33;;;;;;;15.20;11.05;;;;;;;11.01;80.25;94214.25;1713151;84;21476;-72
2022/04/09 09:07:24;;;;;;;11.08;9.28;;;;;;;11.02;80.54;94216.42;1712884;84;21091;-72
2022/04/09 09:09:52;;;;;;;12.63;9.63;;;;;;;11.03;80.03;94212.38;1713321;84;20976;-72
2022/04/09 09:12:32;;;;;;;14.65;11.00;;;;;;;11.06;80.46;94206.11;1713872;83;21525;-72
2022/04/09 09:15:02;;;;;;;10.90;8.35;;;;;;;11.13;80.68;94196.16;1718709;83;21609;-72
2022/04/09 09:17:30;;;;;;;10.53;7.80;;;;;;;11.21;81.21;94196.67;1718748;83;21028;-71
2022/04/09 09:19:58;;;;;;;8.28;6.67;;;;;;;11.31;81.76;94192.70;1718583;83;21023;-72
2022/04/09 09:22:40;;;;;;;8.93;7.15;;;;;;;11.43;81.00;94186.03;1718467;83;21552;-71
2022/04/09 09:25:10;;;;;;;13.80;9.00;;;;;;;11.62;80.80;94179.48;1718837;83;21039;-71
2022/04/09 09:27:43;;;;;;;8.15;7.20;;;;;;;11.82;81.07;94175.46;1718832;83;21019;-71
2022/04/09 09:30:12;;;;;;;8.15;6.62;;;;;;;11.83;80.64;94174.52;1717752;83;21035;-72
2022/04/09 09:32:41;;;;;;;6.70;6.05;;;;;;;11.84;80.26;94168.77;1718692;83;21018;-72
2022/04/09 09:35:14;;;;;;;10.28;7.35;;;;;;;11.85;80.34;94180.60;1718710;83;21028;-72
2022/04/09 09:37:41;;;;;;;6.22;5.15;;;;;;;11.83;79.49;94177.63;1718865;83;21047;-72
2022/04/09 09:40:09;;;;;;;6.85;4.67;;;;;;;11.80;79.55;94183.06;1718520;83;21000;-72
2022/04/09 09:42:36;;;;;;;8.15;5.83;;;;;;;11.75;79.12;94179.31;1718720;83;20964;-72
2022/04/09 09:45:04;;;;;;;11.28;6.67;;;;;;;11.66;79.43;94183.20;1718695;83;21039;-72
2022/04/09 09:47:31;;;;;;;6.12;4.20;;;;;;;11.63;79.88;94178.08;1718607;83;21517;-72
2022/04/09 09:49:58;;;;;;;5.08;4.12;;;;;;;11.64;79.81;94172.32;1718444;83;21513;-72
2022/04/09 09:52:30;;;;;;;7.50;4.90;;;;;;;11.67;79.48;94174.84;1718690;83;20991;-72
2022/04/09 09:55:10;;;;;;;8.03;5.95;;;;;;;11.73;79.56;94182.48;1718607;83;21015;-72
2022/04/09 09:57:37;;;;;;;10.15;6.72;;;;;;;11.69;79.44;94180.89;1718561;83;21019;-72
2022/04/09 10:00:10;;;;;;;7.95;6.17;;;;;;;11.68;79.53;94182.69;1718727;83;21084;-72
2022/04/09 10:02:38;;;;;;;5.70;5.10;;;;;;;11.70;79.48;94177.34;1719046;83;20988;-71
2022/04/09 10:05:06;;;;;;;6.15;5.17;;;;;;;11.67;79.32;94180.13;1718936;83;21043;-71
2022/04/09 10:07:35;;;;;;;10.63;7.12;;;;;;;11.59;79.10;94180.91;1718762;83;21036;-72
2022/04/09 10:10:06;;;;;;;12.07;8.93;;;;;;;11.43;79.16;94186.03;1718655;83;20984;-72
2022/04/09 10:12:40;;;;;;;6.72;6.05;;;;;;;11.41;79.40;94174.67;1717739;83;21036;-72
2022/04/09 10:15:08;;;;;;;12.60;8.73;;;;;;;11.36;79.38;94183.27;1713382;84;21023;-72
2022/04/09 10:17:35;;;;;;;5.90;5.08;;;;;;;11.35;80.04;94180.25;1713262;83;21047;-72
2022/04/09 10:20:05;;;;;;;17.02;12.50;;;;;;;11.28;79.91;94175.69;1712982;84;21031;-72
2022/04/09 10:22:49;;;;;;;19.20;14.15;;;;;;;11.18;80.17;94178.34;1712811;84;21011;-72
2022/04/09 10:25:19;;;;;;;10.50;8.23;;;;;;;11.02;81.03;94174.19;1711968;84;21052;-72
2022/04/09 10:27:56;;;;;;;6.35;5.53;;;;;;;10.95;81.41;94171.41;1685234;84;21007;-72
2022/04/09 10:30:21;;;;;;;;;;;;;;;10.98;81.03;94168.17;1714482;84;21032;-72
2022/04/09 10:32:51;;;;;;;6.90;5.47;;;;;;;11.02;81.44;94172.41;1713040;84;20109;-72
2022/04/09 10:35:32;;;;;;;6.30;5.03;;;;;;;11.07;81.34;94175.32;1712983;83;21067;-72
2022/04/09 10:38:14;;;;;;;5.55;4.87;;;;;;;11.09;81.60;94169.05;1712531;84;21131;-71
2022/04/09 10:40:50;;;;;;;5.85;4.67;;;;;;;11.08;81.50;94175.70;1713075;84;21016;-71
2022/04/09 10:43:28;;;;;;;6.60;4.67;;;;;;;11.00;81.58;94178.20;1713104;84;21095;-72
2022/04/09 10:46:09;;;;;;;9.48;6.12;;;;;;;11.00;81.59;94178.20;1713153;83;21059;-72
2022/04/09 10:48:47;;;;;;;6.53;4.80;;;;;;;11.03;81.55;94178.06;1713503;84;21023;-72
2022/04/09 10:51:18;;;;;;;5.90;4.40;;;;;;;11.01;82.01;94175.09;1711708;84;21035;-71
2022/04/09 10:53:48;;;;;;;6.15;3.67;;;;;;;10.97;81.99;94179.66;1712715;84;21028;-72
2022/04/09 10:56:25;;;;;;;4.85;4.30;;;;;;;10.89;81.77;94165.09;1713149;84;21509;-72
2022/04/09 10:59:18;;;;;;;8.20;4.80;;;;;;;10.86;81.82;94166.08;1712750;84;21075;-72
2022/04/09 11:01:49;;;;;;;5.95;4.97;;;;;;;10.96;81.95;94171.36;1712785;84;21043;-72
2022/04/09 11:07:17;;;;;;;7.80;4.95;;;;;;;10.89;81.96;94169.90;1712743;84;21107;-73
2022/04/09 11:10:03;;;;;;;6.45;5.72;;;;;;;10.90;82.20;94170.75;1713042;83;21035;-72
2022/04/09 11:12:43;;;;;;;7.75;5.97;;;;;;;10.85;82.08;94166.13;1712721;84;21154;-72
2022/04/09 11:15:12;;;;;;;6.33;5.67;;;;;;;10.79;82.26;94167.26;1713029;84;21048;-72
2022/04/09 11:17:49;;;;;;;4.58;4.17;;;;;;;10.83;82.69;94166.19;1713041;84;21100;-72
2022/04/09 11:20:18;;;;;;;5.67;4.60;;;;;;;10.93;82.60;94173.25;1712015;84;21528;-72
2022/04/09 11:22:52;;;;;;;4.92;4.10;;;;;;;11.07;82.63;94166.08;1712667;84;21044;-72
2022/04/09 11:25:32;;;;;;;6.75;5.45;;;;;;;11.18;82.20;94168.63;1712758;84;21024;-72
2022/04/09 11:28:10;;;;;;;9.85;6.75;;;;;;;11.22;81.29;94170.69;1713132;84;20996;-72
2022/04/09 11:30:36;;;;;;;6.12;5.53;;;;;;;11.24;81.72;94148.57;1712815;83;21103;-72
2022/04/09 11:33:03;;;;;;;6.15;5.20;;;;;;;11.31;81.54;94146.50;1712872;83;21020;-72
2022/04/09 11:35:34;;;;;;;7.37;6.20;;;;;;;11.39;81.91;94148.80;1713111;83;21063;-72
2022/04/09 11:38:01;;;;;;;6.72;5.30;;;;;;;11.37;81.83;94166.52;1712660;84;21055;-72
2022/04/09 11:40:28;;;;;;;7.20;5.22;;;;;;;11.43;81.93;94159.62;1712543;84;21016;-72
2022/04/09 11:42:57;;;;;;;6.60;5.10;;;;;;;11.49;81.26;94159.38;1713110;83;21474;-72
2022/04/09 11:45:32;;;;;;;7.70;5.22;;;;;;;11.60;81.70;94149.16;1712987;83;21115;-72